Time;durP1;ratioP1;P1;durP2;ratioP2;P2;SDS_P1;SDS_P2;PMS_P1;PMS_P2;Temp;Humidity;BMP_temperature;BMP_pressure;BME280_temperature;BME280_humidity;BME280_pressure;Samples;Min_cycle;Max_cycle;Signal;HPM_P1;HPM_P2
2021/03/15 00:00:59;;;;;;;0.40;0.40;;;;;;;4.83;100.00;100210.56;5095786;28;20614;-78
2021/03/15 00:03:25;;;;;;;0.40;0.30;;;;;;;4.81;100.00;100213.50;5095545;28;20468;-78
2021/03/15 00:05:51;;;;;;;0.40;0.30;;;;;;;4.77;100.00;100214.31;5095713;28;20449;-78
2021/03/15 00:08:19;;;;;;;0.93;0.63;;;;;;;4.77;100.00;100209.75;5095217;28;20441;-79
2021/03/15 00:10:45;;;;;;;0.50;0.50;;;;;;;4.81;100.00;100210.81;5095710;28;20428;-78
2021/03/15 00:13:11;;;;;;;0.40;0.30;;;;;;;4.83;100.00;100205.19;5096115;28;20440;-78
2021/03/15 00:15:37;;;;;;;0.87;0.83;;;;;;;4.86;100.00;100209.19;5095683;28;20487;-78
2021/03/15 00:18:04;;;;;;;1.10;0.50;;;;;;;4.81;100.00;100213.50;5095789;28;20488;-78
2021/03/15 00:20:30;;;;;;;4.53;0.40;;;;;;;4.78;100.00;100203.34;5096080;28;20472;-78
2021/03/15 00:22:56;;;;;;;0.40;0.30;;;;;;;4.81;100.00;100208.13;5095568;28;20444;-78
2021/03/15 00:25:23;;;;;;;0.77;0.50;;;;;;;4.80;100.00;100198.47;5095219;28;20440;-79
2021/03/15 00:27:49;;;;;;;0.60;0.40;;;;;;;4.80;100.00;100201.16;5095444;28;20445;-79
2021/03/15 00:30:18;;;;;;;2.63;1.43;;;;;;;4.79;100.00;100196.88;5094454;28;20451;-77
2021/03/15 00:32:45;;;;;;;0.50;0.40;;;;;;;4.80;100.00;100197.69;5093494;28;20444;-76
2021/03/15 00:35:13;;;;;;;0.40;0.30;;;;;;;4.79;100.00;100194.19;5093244;28;20429;-76
2021/03/15 00:37:40;;;;;;;1.23;1.03;;;;;;;4.80;100.00;100186.94;5093380;28;20444;-76
2021/03/15 00:40:09;;;;;;;0.40;0.30;;;;;;;4.75;100.00;100198.50;5093456;28;20491;-76
2021/03/15 00:42:36;;;;;;;0.50;0.40;;;;;;;4.71;100.00;100194.75;5093434;28;20436;-76
2021/03/15 00:45:04;;;;;;;0.50;0.40;;;;;;;4.69;100.00;100199.59;5093536;28;20490;-76
2021/03/15 00:47:30;;;;;;;0.50;0.33;;;;;;;4.62;100.00;100193.69;5093457;28;20455;-76
2021/03/15 00:49:56;;;;;;;0.40;0.30;;;;;;;4.58;100.00;100191.81;5093608;28;20895;-76
2021/03/15 00:52:22;;;;;;;0.40;0.30;;;;;;;4.54;100.00;100194.25;5092914;28;20479;-76
2021/03/15 00:54:48;;;;;;;0.40;0.30;;;;;;;4.50;100.00;100185.94;5093293;28;20526;-76
2021/03/15 00:57:14;;;;;;;0.40;0.23;;;;;;;4.50;100.00;100190.50;5093546;28;20875;-76
2021/03/15 00:59:40;;;;;;;0.40;0.30;;;;;;;4.53;100.00;100185.41;5093074;28;20488;-77
2021/03/15 01:02:06;;;;;;;0.67;0.40;;;;;;;4.53;100.00;100198.00;5093012;28;20439;-76
2021/03/15 01:04:32;;;;;;;0.40;0.30;;;;;;;4.54;100.00;100199.59;5093253;28;20441;-76
2021/03/15 01:06:58;;;;;;;0.40;0.30;;;;;;;4.59;100.00;100191.56;5093248;28;20439;-77
2021/03/15 01:09:24;;;;;;;0.40;0.30;;;;;;;4.62;100.00;100182.16;5092684;28;20477;-76
2021/03/15 01:11:50;;;;;;;1.50;0.50;;;;;;;4.64;100.00;100182.69;5095443;28;20515;-76
2021/03/15 01:14:17;;;;;;;0.40;0.30;;;;;;;4.66;100.00;100188.59;5096780;28;20428;-76
2021/03/15 01:16:43;;;;;;;0.70;0.60;;;;;;;4.69;100.00;100202.28;5096907;28;20834;-76
2021/03/15 01:19:09;;;;;;;0.40;0.30;;;;;;;4.69;100.00;100188.88;5096505;28;20525;-76
2021/03/15 01:21:35;;;;;;;0.80;0.50;;;;;;;4.69;100.00;100183.50;5096406;28;20464;-76
2021/03/15 01:24:01;;;;;;;0.40;0.30;;;;;;;4.68;100.00;100183.75;5096682;28;20528;-76
2021/03/15 01:26:27;;;;;;;0.60;0.40;;;;;;;4.69;100.00;100186.19;5096657;28;20440;-76
2021/03/15 01:28:53;;;;;;;0.40;0.30;;;;;;;4.72;100.00;100176.78;5096604;28;20460;-77
2021/03/15 01:31:19;;;;;;;0.40;0.30;;;;;;;4.73;100.00;100178.38;5096604;28;20447;-76
2021/03/15 01:33:46;;;;;;;0.40;0.30;;;;;;;4.78;100.00;100179.19;5096483;28;20490;-76
2021/03/15 01:36:12;;;;;;;0.40;0.30;;;;;;;4.84;100.00;100184.53;5096351;28;20452;-77
2021/03/15 01:38:38;;;;;;;0.40;0.30;;;;;;;4.77;100.00;100174.88;5096209;28;20484;-77
2021/03/15 01:41:04;;;;;;;0.40;0.30;;;;;;;4.80;100.00;100179.72;5096110;28;20527;-76
2021/03/15 01:43:31;;;;;;;0.70;0.70;;;;;;;4.82;100.00;100174.06;5096403;28;20440;-76
2021/03/15 01:45:57;;;;;;;0.40;0.30;;;;;;;4.82;100.00;100174.06;5096462;28;20449;-77
2021/03/15 01:48:23;;;;;;;0.40;0.30;;;;;;;4.83;100.00;100181.06;5096309;28;20925;-77
2021/03/15 01:50:51;;;;;;;0.40;0.30;;;;;;;4.80;99.90;100171.66;5096011;28;20433;-77
2021/03/15 01:53:19;;;;;;;0.40;0.30;;;;;;;4.76;100.00;100167.09;5096072;28;20444;-77
2021/03/15 01:55:45;;;;;;;0.40;0.30;;;;;;;4.77;100.00;100169.50;5096297;28;20429;-76
2021/03/15 01:58:13;;;;;;;0.40;0.30;;;;;;;4.79;100.00;100164.69;5095727;28;20505;-77
2021/03/15 02:00:39;;;;;;;0.40;0.20;;;;;;;4.78;100.00;100160.41;5095639;28;20945;-76
2021/03/15 02:03:06;;;;;;;0.40;0.30;;;;;;;4.78;100.00;100156.91;5095710;28;20444;-76
2021/03/15 02:05:34;;;;;;;0.50;0.50;;;;;;;4.78;100.00;100152.34;5095994;28;20437;-76
2021/03/15 02:08:01;;;;;;;0.77;0.70;;;;;;;4.83;100.00;100146.16;5096207;28;20452;-78
2021/03/15 02:10:27;;;;;;;0.50;0.30;;;;;;;4.86;100.00;100142.13;5099788;28;20823;-78
2021/03/15 02:13:08;;;;;;;0.40;0.20;;;;;;;4.85;100.00;100148.56;5100575;28;20440;-79
2021/03/15 02:15:45;;;;;;;1.23;0.93;;;;;;;4.88;100.00;100142.66;5100530;28;20436;-79
2021/03/15 02:18:20;;;;;;;0.40;0.30;;;;;;;4.89;100.00;100139.69;5100536;28;21016;-79
2021/03/15 02:21:27;;;;;;;2.10;0.50;;;;;;;4.87;100.00;100133.81;5100627;28;20432;-79
2021/03/15 02:24:00;;;;;;;0.40;0.40;;;;;;;4.87;100.00;100133.00;5100772;28;20428;-79
2021/03/15 02:26:53;;;;;;;0.40;0.30;;;;;;;4.83;100.00;100138.13;5101380;28;20410;-79
2021/03/15 02:29:51;;;;;;;0.87;0.50;;;;;;;4.77;100.00;100134.63;5101173;28;20461;-79
2021/03/15 02:32:45;;;;;;;0.40;0.30;;;;;;;4.79;100.00;100119.06;5102549;28;20432;-79
2021/03/15 02:35:16;;;;;;;0.40;0.20;;;;;;;4.79;100.00;100123.66;5103192;28;20890;-79
2021/03/15 02:37:45;;;;;;;1.07;0.87;;;;;;;4.79;100.00;100124.44;5102085;28;20845;-79
2021/03/15 02:40:22;;;;;;;0.40;0.30;;;;;;;4.79;100.00;100119.06;5098428;28;20460;-79
2021/03/15 02:42:52;;;;;;;3.30;0.77;;;;;;;4.75;100.00;100117.22;5098639;28;20424;-79
2021/03/15 02:45:19;;;;;;;0.50;0.50;;;;;;;4.75;100.00;100119.91;5098522;28;20929;-79
2021/03/15 02:47:48;;;;;;;0.40;0.30;;;;;;;4.73;100.00;100122.03;5098674;28;20436;-79
2021/03/15 02:50:15;;;;;;;0.50;0.40;;;;;;;4.69;100.00;100119.13;5097851;28;20453;-79
2021/03/15 02:52:46;;;;;;;0.97;0.40;;;;;;;4.72;100.00;100123.91;5098226;28;20967;-79
2021/03/15 02:55:16;;;;;;;0.60;0.50;;;;;;;4.68;100.00;100124.75;5097950;28;20794;-79
2021/03/15 02:57:44;;;;;;;0.40;0.30;;;;;;;4.70;100.00;100119.91;5098100;28;20436;-79
2021/03/15 03:00:12;;;;;;;0.40;0.30;;;;;;;4.69;100.00;100126.34;5097132;28;20484;-79
2021/03/15 03:02:42;;;;;;;0.40;0.20;;;;;;;4.75;100.00;100122.59;5098152;28;20564;-79
2021/03/15 03:05:09;;;;;;;0.40;0.30;;;;;;;4.80;100.00;100123.34;5097404;28;20424;-79
2021/03/15 03:07:40;;;;;;;0.40;0.30;;;;;;;4.85;100.00;100121.75;5097852;28;20444;-79
2021/03/15 03:10:09;;;;;;;0.87;0.40;;;;;;;4.84;100.00;100120.94;5097365;28;20475;-79
2021/03/15 03:12:37;;;;;;;2.60;0.60;;;;;;;4.87;99.70;100131.13;5097813;28;20433;-78
2021/03/15 03:15:06;;;;;;;0.40;0.30;;;;;;;4.83;99.51;100127.38;5097904;28;20452;-78
2021/03/15 03:17:37;;;;;;;0.40;0.30;;;;;;;4.79;99.40;100123.66;5098288;28;20803;-79
2021/03/15 03:20:04;;;;;;;0.60;0.60;;;;;;;4.76;99.79;100122.31;5096884;28;21106;-78
2021/03/15 03:22:30;;;;;;;1.90;1.43;;;;;;;4.78;100.00;100125.53;5097668;28;20444;-78
2021/03/15 03:24:58;;;;;;;0.60;0.40;;;;;;;4.76;100.00;100119.63;5096410;28;20894;-78
2021/03/15 03:27:26;;;;;;;0.40;0.30;;;;;;;4.75;99.89;100120.69;5096628;28;20969;-78
2021/03/15 03:29:52;;;;;;;0.40;0.30;;;;;;;4.74;100.00;100123.66;5096567;28;20476;-78
2021/03/15 03:32:20;;;;;;;0.50;0.50;;;;;;;4.70;100.00;100118.03;5096229;28;20423;-78
2021/03/15 03:34:47;;;;;;;0.40;0.40;;;;;;;4.63;100.00;100117.50;5095513;28;20432;-78
2021/03/15 03:37:12;;;;;;;0.40;0.30;;;;;;;4.58;100.00;100112.16;5096129;28;20448;-78
2021/03/15 03:39:38;;;;;;;1.00;0.90;;;;;;;4.54;100.00;100111.09;5096091;28;20488;-79
2021/03/15 03:42:06;;;;;;;0.40;0.30;;;;;;;4.49;100.00;100108.44;5096259;28;20531;-79
2021/03/15 03:44:32;;;;;;;0.40;0.30;;;;;;;4.43;100.00;100112.22;5096200;28;20811;-79
2021/03/15 03:46:58;;;;;;;0.50;0.40;;;;;;;4.43;100.00;100114.91;5096460;28;20444;-79
2021/03/15 03:49:24;;;;;;;0.53;0.50;;;;;;;4.42;100.00;100107.91;5096755;28;20495;-78
2021/03/15 03:52:00;;;;;;;0.70;0.57;;;;;;;4.38;100.00;100104.16;5096036;28;20936;-78
2021/03/15 03:54:28;;;;;;;1.13;0.67;;;;;;;4.28;100.00;100105.78;5096648;28;20935;-78
2021/03/15 03:56:59;;;;;;;1.23;1.23;;;;;;;4.25;100.00;100098.31;5096412;28;20436;-78
2021/03/15 03:59:27;;;;;;;3.50;0.63;;;;;;;4.21;100.00;100101.81;5096528;28;20533;-78
2021/03/15 04:01:57;;;;;;;0.40;0.20;;;;;;;4.18;100.00;100110.38;5096203;28;20445;-78
2021/03/15 04:04:27;;;;;;;0.40;0.30;;;;;;;4.10;100.00;100106.34;5096222;28;20440;-78
2021/03/15 04:06:53;;;;;;;0.67;0.43;;;;;;;4.09;100.00;100110.13;5095946;28;20460;-78
2021/03/15 04:09:27;;;;;;;2.80;1.60;;;;;;;3.98;100.00;100103.16;5095977;28;20846;-78
2021/03/15 04:11:58;;;;;;;0.43;0.33;;;;;;;3.98;100.00;100111.19;5096648;28;20432;-78
2021/03/15 04:14:29;;;;;;;0.70;0.50;;;;;;;3.93;100.00;100109.31;5096006;28;20424;-78
2021/03/15 04:16:56;;;;;;;0.43;0.37;;;;;;;3.91;100.00;100108.00;5096576;28;20429;-79
2021/03/15 04:19:26;;;;;;;0.40;0.30;;;;;;;3.95;100.00;100112.53;5097249;28;20546;-79
2021/03/15 04:21:56;;;;;;;0.80;0.60;;;;;;;3.93;100.00;100101.28;5096440;28;20409;-79
2021/03/15 04:24:23;;;;;;;0.60;0.60;;;;;;;3.97;100.00;100106.91;5097835;28;20822;-79
2021/03/15 04:26:51;;;;;;;0.60;0.50;;;;;;;3.99;100.00;100113.63;5098157;28;20447;-79
2021/03/15 04:29:18;;;;;;;0.50;0.40;;;;;;;4.04;100.00;100108.25;5096961;28;20521;-79
2021/03/15 04:31:45;;;;;;;0.50;0.40;;;;;;;4.04;100.00;100113.59;5096517;28;20437;-79
2021/03/15 04:34:12;;;;;;;0.50;0.40;;;;;;;4.10;100.00;100109.03;5096562;28;20458;-78
2021/03/15 04:36:39;;;;;;;0.40;0.30;;;;;;;4.14;100.00;100104.75;5095891;28;20889;-78
2021/03/15 04:39:06;;;;;;;0.50;0.50;;;;;;;4.15;100.00;100109.03;5096119;28;20491;-79
2021/03/15 04:41:32;;;;;;;0.60;0.50;;;;;;;4.18;100.00;100108.50;5095916;28;20447;-78
2021/03/15 04:43:58;;;;;;;0.40;0.40;;;;;;;4.18;100.00;100107.69;5096089;28;20429;-78
2021/03/15 04:46:25;;;;;;;0.50;0.40;;;;;;;4.20;100.00;100105.53;5097353;28;20436;-78
2021/03/15 04:48:52;;;;;;;3.63;1.63;;;;;;;4.18;100.00;100102.34;5099807;28;20452;-79
2021/03/15 04:51:19;;;;;;;0.50;0.37;;;;;;;4.14;100.00;100102.06;5100089;28;20448;-79
2021/03/15 04:53:45;;;;;;;1.03;0.50;;;;;;;4.10;100.00;100111.72;5099606;28;21006;-79
2021/03/15 04:56:15;;;;;;;0.40;0.30;;;;;;;4.10;100.00;100101.00;5099542;28;20448;-79
2021/03/15 04:58:45;;;;;;;2.00;1.70;;;;;;;4.13;100.00;100103.16;5099635;28;20487;-78
2021/03/15 05:01:15;;;;;;;0.50;0.50;;;;;;;4.18;100.00;100113.84;5100069;28;20459;-78
2021/03/15 05:03:43;;;;;;;0.40;0.30;;;;;;;4.24;100.00;100114.66;5100011;28;20441;-78
2021/03/15 05:06:13;;;;;;;1.37;0.77;;;;;;;4.21;100.00;100107.97;5100402;28;20444;-78
2021/03/15 05:08:43;;;;;;;5.13;2.10;;;;;;;4.27;100.00;100106.88;5100832;28;20527;-78
2021/03/15 05:11:10;;;;;;;1.07;0.63;;;;;;;4.29;100.00;100103.91;5101317;28;20424;-79
2021/03/15 05:13:40;;;;;;;2.60;0.80;;;;;;;4.28;100.00;100107.69;5100991;28;20439;-78
2021/03/15 05:16:08;;;;;;;1.83;0.73;;;;;;;4.27;100.00;100101.50;5101167;28;20441;-78
2021/03/15 05:18:34;;;;;;;1.23;1.00;;;;;;;4.19;100.00;100104.75;5101189;28;20572;-79
2021/03/15 05:21:01;;;;;;;1.90;1.77;;;;;;;4.24;100.00;100107.41;5102707;28;21002;-79
2021/03/15 05:23:29;;;;;;;0.40;0.30;;;;;;;4.27;100.00;100101.50;5109328;28;20557;-79
2021/03/15 05:25:56;;;;;;;0.40;0.30;;;;;;;4.28;100.00;100091.59;5101331;28;20501;-78
2021/03/15 05:28:22;;;;;;;0.90;0.77;;;;;;;4.28;100.00;100086.22;5098252;28;20428;-78
2021/03/15 05:30:50;;;;;;;0.40;0.30;;;;;;;4.26;100.00;100086.50;5098524;28;20818;-78
2021/03/15 05:33:19;;;;;;;0.50;0.43;;;;;;;4.29;100.00;100093.19;5098958;28;20441;-78
2021/03/15 05:35:46;;;;;;;0.40;0.40;;;;;;;4.27;100.00;100085.44;5098400;28;20802;-78
2021/03/15 05:38:12;;;;;;;0.50;0.47;;;;;;;4.26;100.00;100089.19;5098110;28;20444;-78
2021/03/15 05:40:43;;;;;;;2.20;2.10;;;;;;;4.27;100.00;100088.09;5098174;28;20865;-78
2021/03/15 05:43:21;;;;;;;0.50;0.40;;;;;;;4.30;100.00;100087.56;5097984;28;20432;-78
2021/03/15 05:46:07;;;;;;;1.23;0.70;;;;;;;4.30;99.67;100092.94;5097788;28;20413;-78
2021/03/15 05:48:56;;;;;;;1.17;1.10;;;;;;;4.27;99.68;100088.09;5097631;28;20456;-78
2021/03/15 05:51:52;;;;;;;0.50;0.40;;;;;;;4.28;99.44;100092.38;5097934;28;20439;-78
2021/03/15 05:55:03;;;;;;;0.40;0.37;;;;;;;4.27;99.87;100085.44;5098150;28;20435;-78
2021/03/15 05:58:06;;;;;;;1.20;1.10;;;;;;;4.23;99.77;100089.72;5081098;28;20513;-79
2021/03/15 06:00:45;;;;;;;3.07;2.47;;;;;;;4.32;99.69;100097.22;5097969;28;20440;-79
2021/03/15 06:03:21;;;;;;;0.40;0.30;;;;;;;4.35;99.58;100091.31;5099477;28;20427;-79
2021/03/15 06:05:49;;;;;;;3.00;1.37;;;;;;;4.33;98.74;100091.56;5099081;28;20436;-78
2021/03/15 06:08:19;;;;;;;0.73;0.73;;;;;;;4.35;99.13;100092.13;5097557;28;20445;-78
2021/03/15 06:10:57;;;;;;;0.40;0.30;;;;;;;4.38;99.44;100093.44;5097623;28;20409;-78
2021/03/15 06:13:27;;;;;;;0.40;0.30;;;;;;;4.40;99.60;100094.00;5077507;28;20434;-78
2021/03/15 06:15:54;;;;;;;3.60;0.83;;;;;;;4.39;99.44;100093.19;5077463;28;20880;-78
2021/03/15 06:18:22;;;;;;;0.87;0.87;;;;;;;4.47;98.97;100094.50;5077714;28;20438;-78
2021/03/15 06:20:49;;;;;;;0.67;0.57;;;;;;;4.52;99.04;100097.19;5077891;28;20438;-79
2021/03/15 06:23:16;;;;;;;0.40;0.30;;;;;;;4.53;98.22;100093.41;5077948;28;20483;-79
2021/03/15 06:25:43;;;;;;;0.40;0.30;;;;;;;4.51;98.46;100084.81;5078090;28;20540;-79
2021/03/15 06:28:10;;;;;;;0.60;0.50;;;;;;;4.53;98.06;100096.09;5093965;28;20521;-79
2021/03/15 06:30:38;;;;;;;0.83;0.83;;;;;;;4.57;98.00;100094.47;5097920;28;20440;-78
2021/03/15 06:33:05;;;;;;;0.40;0.30;;;;;;;4.60;97.70;100093.91;5098730;28;20860;-79
2021/03/15 06:35:35;;;;;;;0.40;0.30;;;;;;;4.60;97.53;100098.47;5097459;28;20448;-78
2021/03/15 06:38:01;;;;;;;0.40;0.30;;;;;;;4.61;97.27;100095.53;5096930;28;20447;-76
2021/03/15 06:40:28;;;;;;;1.67;0.97;;;;;;;4.56;96.78;100090.19;5095244;28;20892;-76
2021/03/15 06:42:55;;;;;;;0.40;0.30;;;;;;;4.60;97.04;100096.59;5095502;28;20433;-76
2021/03/15 06:45:21;;;;;;;0.40;0.30;;;;;;;4.58;96.64;100095.28;5095578;28;20429;-76
2021/03/15 06:47:50;;;;;;;0.40;0.30;;;;;;;4.62;96.08;100096.34;5095239;28;20447;-76
2021/03/15 06:50:18;;;;;;;0.50;0.50;;;;;;;4.64;95.87;100094.97;5095200;28;20464;-76
2021/03/15 06:53:01;;;;;;;0.93;0.50;;;;;;;4.74;96.41;100091.47;5095103;28;20445;-76
2021/03/15 06:55:30;;;;;;;0.40;0.27;;;;;;;4.86;96.42;100100.00;5094946;28;20452;-76
2021/03/15 06:57:57;;;;;;;0.63;0.60;;;;;;;4.91;95.84;100099.97;5094879;28;20843;-76
2021/03/15 07:00:25;;;;;;;0.50;0.50;;;;;;;5.00;95.38;100102.88;5095007;28;20521;-77
2021/03/15 07:03:00;;;;;;;0.40;0.30;;;;;;;4.99;94.44;100102.06;5095158;28;20440;-76
2021/03/15 07:05:27;;;;;;;1.03;0.77;;;;;;;5.07;94.58;100103.38;5095135;28;20800;-76
2021/03/15 07:07:55;;;;;;;0.40;0.30;;;;;;;5.06;94.21;100104.47;5095011;28;20451;-76
2021/03/15 07:10:23;;;;;;;1.57;0.60;;;;;;;5.07;93.75;100106.06;5094594;28;20481;-76
2021/03/15 07:12:49;;;;;;;0.40;0.30;;;;;;;5.14;93.66;100111.97;5094668;28;20444;-76
2021/03/15 07:15:16;;;;;;;0.40;0.30;;;;;;;5.19;93.54;100109.25;5094848;28;20458;-76
2021/03/15 07:17:42;;;;;;;1.93;1.23;;;;;;;5.23;93.66;100106.81;5094808;28;20448;-76
2021/03/15 07:20:10;;;;;;;2.83;0.93;;;;;;;5.32;94.37;100102.47;5094205;28;20488;-76
2021/03/15 07:22:44;;;;;;;0.60;0.60;;;;;;;5.48;94.20;100105.84;5094410;28;20933;-76
2021/03/15 07:25:15;;;;;;;2.00;0.73;;;;;;;5.55;92.68;100100.97;5094610;28;20447;-76
2021/03/15 07:27:43;;;;;;;1.40;0.90;;;;;;;5.52;91.56;100099.63;5094363;28;20793;-76
2021/03/15 07:30:27;;;;;;;1.57;0.80;;;;;;;5.53;90.79;100101.25;5094477;28;20452;-76
2021/03/15 07:32:53;;;;;;;0.40;0.33;;;;;;;5.68;91.87;100104.91;5094461;28;20417;-76
2021/03/15 07:35:25;;;;;;;1.17;1.07;;;;;;;5.70;90.96;100105.41;5094465;28;20441;-76
2021/03/15 07:37:51;;;;;;;1.10;0.67;;;;;;;5.74;91.24;100109.16;5093959;28;20424;-76
2021/03/15 07:40:42;;;;;;;0.70;0.70;;;;;;;5.63;90.53;100105.75;5094284;28;20492;-75
2021/03/15 07:43:11;;;;;;;0.50;0.50;;;;;;;5.71;91.13;100110.53;5073749;28;20448;-76
2021/03/15 07:45:42;;;;;;;3.47;0.70;;;;;;;5.78;90.75;100113.69;5092866;28;20444;-76
2021/03/15 07:48:20;;;;;;;0.40;0.30;;;;;;;5.85;90.71;100115.25;5093026;28;20878;-76
2021/03/15 07:50:59;;;;;;;1.63;1.23;;;;;;;5.88;90.37;100117.38;5094134;28;20443;-76
2021/03/15 07:53:39;;;;;;;3.13;0.87;;;;;;;5.86;89.37;100122.22;5094010;28;20424;-76
2021/03/15 07:56:07;;;;;;;1.03;1.03;;;;;;;5.89;90.09;100118.97;5094245;28;20417;-76
2021/03/15 07:58:34;;;;;;;0.50;0.50;;;;;;;5.96;90.23;100116.78;5093646;28;21000;-76
2021/03/15 08:01:02;;;;;;;1.00;0.60;;;;;;;6.08;89.54;100119.94;5093892;28;20440;-76
2021/03/15 08:03:28;;;;;;;2.60;1.33;;;;;;;6.15;89.68;100116.91;5093904;28;20451;-76
2021/03/15 08:05:56;;;;;;;0.97;0.97;;;;;;;6.33;89.63;100116.22;5098681;28;20443;-77
2021/03/15 08:08:23;;;;;;;0.90;0.40;;;;;;;6.44;88.55;100114.22;5101712;28;20455;-77
2021/03/15 08:10:50;;;;;;;0.77;0.60;;;;;;;6.35;87.81;100118.59;5097887;28;20436;-76
2021/03/15 08:13:19;;;;;;;2.70;2.20;;;;;;;6.23;87.39;100124.34;5093821;28;20452;-76
2021/03/15 08:15:47;;;;;;;1.00;0.90;;;;;;;6.29;88.21;100117.88;5093891;28;20488;-76
2021/03/15 08:18:19;;;;;;;0.40;0.30;;;;;;;6.37;87.63;100119.09;5093815;28;20436;-76
2021/03/15 08:20:46;;;;;;;1.00;1.00;;;;;;;6.47;88.20;100119.03;5095405;28;20413;-76
2021/03/15 08:23:13;;;;;;;0.60;0.60;;;;;;;6.56;88.34;100118.13;5100404;28;20439;-76
2021/03/15 08:25:43;;;;;;;2.00;1.17;;;;;;;6.57;86.07;100119.72;5100182;28;20429;-76
2021/03/15 08:28:11;;;;;;;1.47;1.37;;;;;;;6.50;87.47;100118.44;5100120;28;20421;-76
2021/03/15 08:30:38;;;;;;;5.20;0.60;;;;;;;6.48;86.47;100112.56;5100414;28;20441;-76
2021/03/15 08:33:04;;;;;;;0.53;0.53;;;;;;;6.45;86.79;100118.50;5100388;28;20431;-76
2021/03/15 08:35:31;;;;;;;0.50;0.50;;;;;;;6.42;87.34;100113.66;5100634;28;20444;-76
2021/03/15 08:37:58;;;;;;;0.50;0.50;;;;;;;6.34;87.84;100119.69;5100727;28;20443;-76
2021/03/15 08:40:51;;;;;;;1.57;0.90;;;;;;;6.38;88.20;100115.34;5100189;28;20488;-76
2021/03/15 08:43:29;;;;;;;1.37;0.40;;;;;;;6.39;88.18;100119.66;5101111;28;20446;-78
2021/03/15 08:45:57;;;;;;;1.80;0.93;;;;;;;6.29;88.33;100121.34;5101935;28;20432;-78
2021/03/15 08:48:57;;;;;;;1.03;1.00;;;;;;;6.23;88.23;100119.78;5101588;28;20436;-78
2021/03/15 08:51:47;;;;;;;0.53;0.50;;;;;;;6.18;88.55;100117.13;5101540;28;20906;-78
2021/03/15 08:54:32;;;;;;;4.20;2.63;;;;;;;6.19;88.42;100109.88;5101404;28;20478;-78
2021/03/15 08:56:59;;;;;;;0.60;0.53;;;;;;;6.18;88.75;100111.75;5099319;28;20447;-78
2021/03/15 08:59:31;;;;;;;0.97;0.87;;;;;;;6.25;88.76;100106.06;5101214;28;20487;-78
2021/03/15 09:02:01;;;;;;;0.50;0.20;;;;;;;6.33;88.03;100100.06;5101832;28;20789;-78
2021/03/15 09:04:42;;;;;;;0.97;0.50;;;;;;;6.40;88.99;100102.41;5101186;28;20455;-77
2021/03/15 09:07:28;;;;;;;0.47;0.40;;;;;;;6.60;89.53;100101.38;5101901;28;20427;-77
2021/03/15 09:09:54;;;;;;;0.40;0.30;;;;;;;6.73;88.12;100101.50;5095658;28;20552;-77
2021/03/15 09:12:21;;;;;;;0.57;0.57;;;;;;;6.81;87.28;100098.16;5092811;28;20973;-78
2021/03/15 09:14:54;;;;;;;0.47;0.47;;;;;;;6.90;86.17;100103.72;5100934;28;20443;-78
2021/03/15 09:17:31;;;;;;;0.40;0.33;;;;;;;7.00;85.94;100095.53;5100114;28;20466;-76
2021/03/15 09:19:58;;;;;;;1.10;1.07;;;;;;;7.13;85.09;100099.41;5099802;28;21003;-77
2021/03/15 09:22:24;;;;;;;0.60;0.50;;;;;;;7.19;84.47;100087.47;5100102;28;20968;-77
2021/03/15 09:24:55;;;;;;;1.57;0.80;;;;;;;7.33;85.32;100096.41;5100159;28;20440;-77
2021/03/15 09:27:39;;;;;;;3.80;0.50;;;;;;;7.29;82.60;100091.91;5099658;28;20550;-77
2021/03/15 09:30:12;;;;;;;1.47;1.40;;;;;;;7.33;82.91;100101.78;5100271;28;20463;-77
2021/03/15 09:32:40;;;;;;;0.40;0.30;;;;;;;7.24;82.68;100100.06;5098768;28;20400;-77
2021/03/15 09:35:16;;;;;;;1.27;1.17;;;;;;;7.29;83.24;100102.66;5096967;28;20489;-77
2021/03/15 09:37:46;;;;;;;0.40;0.27;;;;;;;7.40;83.62;100097.97;5096705;28;20448;-77
2021/03/15 09:40:14;;;;;;;2.27;1.17;;;;;;;7.46;83.17;100107.56;5096776;28;20488;-77
2021/03/15 09:42:43;;;;;;;3.53;2.60;;;;;;;7.47;82.83;100093.78;5096827;28;20439;-77
2021/03/15 09:45:13;;;;;;;0.93;0.93;;;;;;;7.43;82.54;100097.34;5096952;28;20447;-77
2021/03/15 09:47:39;;;;;;;1.07;0.97;;;;;;;7.33;81.72;100095.63;5096661;28;20916;-77
2021/03/15 09:50:16;;;;;;;0.90;0.63;;;;;;;7.37;81.65;100109.31;5096619;28;20456;-77
2021/03/15 09:52:42;;;;;;;0.40;0.30;;;;;;;7.38;80.49;100100.13;5096827;28;20433;-77
2021/03/15 09:55:09;;;;;;;0.60;0.53;;;;;;;7.34;80.00;100108.78;5096443;28;20436;-77
2021/03/15 09:57:35;;;;;;;1.57;0.93;;;;;;;7.36;80.41;100100.44;5096158;28;20451;-77
2021/03/15 10:00:11;;;;;;;1.60;0.83;;;;;;;7.46;80.75;100104.84;5096589;28;20488;-77
2021/03/15 10:02:37;;;;;;;0.73;0.60;;;;;;;7.53;80.73;100099.91;5095934;28;20918;-77
2021/03/15 10:05:04;;;;;;;1.80;1.33;;;;;;;7.54;80.55;100098.81;5095829;28;20853;-77
2021/03/15 10:07:30;;;;;;;3.40;0.83;;;;;;;7.49;80.05;100101.59;5096380;28;20445;-77
2021/03/15 10:09:56;;;;;;;1.40;1.03;;;;;;;7.53;79.70;100091.84;5095736;28;20507;-77
2021/03/15 10:12:24;;;;;;;0.80;0.80;;;;;;;7.74;81.04;100097.69;5095818;28;20449;-78
2021/03/15 10:14:59;;;;;;;0.40;0.40;;;;;;;7.69;78.90;100103.97;5096413;28;20482;-77
2021/03/15 10:17:26;;;;;;;0.60;0.60;;;;;;;7.64;79.74;100092.47;5095714;28;20439;-78
2021/03/15 10:19:52;;;;;;;1.10;0.90;;;;;;;7.74;80.29;100098.47;5095787;28;20484;-78
2021/03/15 10:22:20;;;;;;;0.83;0.83;;;;;;;7.84;80.17;100095.66;5095722;28;20445;-77
2021/03/15 10:24:49;;;;;;;0.40;0.30;;;;;;;7.84;79.82;100094.84;5095753;28;20444;-77
2021/03/15 10:27:18;;;;;;;0.43;0.40;;;;;;;7.76;79.17;100093.63;5095761;28;20452;-76
2021/03/15 10:29:50;;;;;;;1.60;1.17;;;;;;;7.76;79.35;100093.63;5095602;28;20456;-77
2021/03/15 10:32:20;;;;;;;0.40;0.30;;;;;;;7.59;79.72;100091.44;5095786;28;20794;-77
2021/03/15 10:34:52;;;;;;;0.40;0.40;;;;;;;7.47;79.98;100091.09;5095854;28;20451;-77
2021/03/15 10:37:19;;;;;;;0.40;0.30;;;;;;;7.55;81.19;100092.31;5095556;28;20424;-78
2021/03/15 10:39:48;;;;;;;0.60;0.50;;;;;;;7.59;80.71;100085.25;5095608;28;20542;-76
2021/03/15 10:42:15;;;;;;;2.77;1.27;;;;;;;7.54;81.19;100086.13;5095005;28;20987;-76
2021/03/15 10:44:41;;;;;;;4.23;0.63;;;;;;;7.55;81.40;100079.66;5094804;28;20463;-76
2021/03/15 10:47:08;;;;;;;0.63;0.57;;;;;;;7.72;81.80;100078.31;5095250;28;20498;-76
2021/03/15 10:49:34;;;;;;;0.80;0.50;;;;;;;7.88;80.79;100070.78;5094750;28;20456;-76
2021/03/15 10:52:01;;;;;;;0.83;0.67;;;;;;;8.01;80.74;100078.91;5093570;28;21013;-76
2021/03/15 10:54:31;;;;;;;1.07;0.97;;;;;;;8.19;79.31;100081.81;5097457;28;20444;-76
2021/03/15 10:57:18;;;;;;;1.90;0.67;;;;;;;8.52;79.79;100069.09;5109704;28;20456;-76
2021/03/15 10:59:46;;;;;;;1.03;0.50;;;;;;;8.76;78.26;100069.69;5095342;28;20488;-76
2021/03/15 11:02:23;;;;;;;0.50;0.40;;;;;;;8.99;76.41;100067.09;5095136;28;20444;-75
2021/03/15 11:04:55;;;;;;;0.50;0.37;;;;;;;9.03;74.32;100068.03;5094286;28;20841;-76
2021/03/15 11:07:25;;;;;;;1.87;0.70;;;;;;;8.84;74.00;100066.28;5094853;28;20445;-75
2021/03/15 11:10:13;;;;;;;0.40;0.30;;;;;;;8.56;74.64;100065.50;5090194;22;20536;-66
2021/03/15 11:12:41;;;;;;;1.17;1.10;;;;;;;8.16;74.49;100063.56;5073937;28;20845;-66
2021/03/15 11:15:16;;;;;;;0.50;0.40;;;;;;;8.11;76.21;100052.88;5074040;28;20438;-66
2021/03/15 11:17:43;;;;;;;4.10;0.57;;;;;;;7.93;75.98;100046.44;5074080;28;20417;-65
2021/03/15 11:20:12;;;;;;;0.60;0.60;;;;;;;7.86;76.15;100046.00;5073948;28;20495;-65
2021/03/15 11:22:50;;;;;;;0.80;0.63;;;;;;;7.93;77.01;100052.63;5073869;28;20438;-66
2021/03/15 11:25:17;;;;;;;1.00;0.73;;;;;;;8.29;75.39;100044.69;5073841;28;20441;-67
2021/03/15 11:27:47;;;;;;;0.77;0.50;;;;;;;9.11;73.21;100043.03;5073781;28;20449;-64
2021/03/15 11:30:24;;;;;;;0.80;0.80;;;;;;;9.93;68.54;100047.28;5073811;28;20463;-66
2021/03/15 11:32:58;;;;;;;0.60;0.57;;;;;;;9.75;68.22;100043.69;5073701;28;20784;-66
2021/03/15 11:35:24;;;;;;;1.27;1.17;;;;;;;9.18;69.98;100042.63;5073703;28;20483;-66
2021/03/15 11:37:51;;;;;;;0.80;0.70;;;;;;;8.98;71.96;100038.44;5073671;28;20442;-65
2021/03/15 11:40:27;;;;;;;3.10;1.13;;;;;;;9.16;71.71;100034.00;5073539;28;20538;-66
2021/03/15 11:42:54;;;;;;;0.97;0.50;;;;;;;9.28;71.02;100032.34;5073703;28;20421;-66